Time;durP1;ratioP1;P1;durP2;ratioP2;P2;SDS_P1;SDS_P2;PMS_P1;PMS_P2;Temp;Humidity;BMP_temperature;BMP_pressure;BME280_temperature;BME280_humidity;BME280_pressure;Samples;Min_cycle;Max_cycle;Signal;HPM_P1;HPM_P2
2022/10/30 00:02:21;;;;;;;26.83;14.75;;;;;;;14.01;96.61;101587.97;5053048;28;20025;-56
2022/10/30 00:04:47;;;;;;;26.58;15.43;;;;;;;13.99;96.35;101586.59;5053375;28;20503;-58
2022/10/30 00:07:12;;;;;;;25.33;14.98;;;;;;;13.95;96.68;101580.03;5053229;28;20456;-58
2022/10/30 00:09:37;;;;;;;27.38;14.85;;;;;;;13.96;96.93;101582.50;5053202;28;20029;-58
2022/10/30 00:12:03;;;;;;;25.77;15.10;;;;;;;13.95;96.84;101582.81;5052932;28;20039;-58
2022/10/30 00:14:28;;;;;;;24.63;14.65;;;;;;;13.91;97.09;101582.63;5052661;28;20032;-58
2022/10/30 00:16:53;;;;;;;26.35;16.15;;;;;;;13.87;96.88;101582.41;5052632;28;20047;-58
2022/10/30 00:19:18;;;;;;;24.88;15.38;;;;;;;13.84;97.35;101583.03;5052737;28;20025;-57
2022/10/30 00:21:44;;;;;;;26.23;15.23;;;;;;;13.83;97.71;101581.38;5052600;28;20364;-58
2022/10/30 00:24:09;;;;;;;26.63;15.05;;;;;;;13.81;97.81;101580.84;5052361;28;20124;-58
2022/10/30 00:26:35;;;;;;;26.88;15.63;;;;;;;13.80;97.57;101582.00;5065866;23;20373;-60
2022/10/30 00:29:00;;;;;;;27.90;15.23;;;;;;;13.78;97.76;101578.72;5052841;28;20105;-59
2022/10/30 00:31:26;;;;;;;25.33;15.25;;;;;;;13.78;98.20;101595.41;5053018;28;20056;-60
2022/10/30 00:33:53;;;;;;;24.55;15.02;;;;;;;13.73;97.99;101579.66;5052668;28;20021;-61
2022/10/30 00:36:19;;;;;;;29.98;15.75;;;;;;;13.79;97.97;101582.31;5052752;28;20035;-60
2022/10/30 00:38:44;;;;;;;25.98;15.30;;;;;;;13.78;97.82;101580.66;5052595;28;20156;-60
2022/10/30 00:41:20;;;;;;;28.15;14.75;;;;;;;13.76;98.22;101586.53;5051205;28;20029;-60
2022/10/30 00:43:46;;;;;;;24.77;15.00;;;;;;;13.74;98.27;101580.47;5052617;28;20036;-61
2022/10/30 00:46:17;;;;;;;24.85;14.73;;;;;;;13.70;98.56;101577.47;5052605;28;20033;-61
2022/10/30 00:48:47;;;;;;;24.88;15.05;;;;;;;13.64;98.58;101575.94;5052573;28;20025;-61
2022/10/30 00:51:13;;;;;;;26.55;15.40;;;;;;;13.62;98.68;101571.81;5052388;28;20047;-60
2022/10/30 00:53:40;;;;;;;26.33;14.77;;;;;;;13.60;99.20;101569.34;5052290;28;20032;-60
2022/10/30 00:56:08;;;;;;;24.75;15.38;;;;;;;13.56;99.46;101568.28;5052302;28;20027;-59
2022/10/30 00:58:43;;;;;;;24.92;15.60;;;;;;;13.47;99.21;101565.44;5052121;28;20036;-61
2022/10/30 01:01:15;;;;;;;27.73;15.77;;;;;;;13.52;99.55;101576.44;5052157;28;20464;-61
2022/10/30 01:03:40;;;;;;;27.30;16.27;;;;;;;13.46;99.54;101574.91;5052242;28;20040;-61
2022/10/30 01:06:10;;;;;;;24.67;15.13;;;;;;;13.44;100.00;101573.56;5052125;28;20021;-61
2022/10/30 01:08:36;;;;;;;25.85;15.05;;;;;;;13.43;99.96;101575.50;5051884;28;20033;-59
2022/10/30 01:11:03;;;;;;;26.63;16.75;;;;;;;13.40;100.00;101574.16;5051990;28;20040;-61
2022/10/30 01:13:29;;;;;;;26.88;15.20;;;;;;;13.38;100.00;101575.59;5051693;28;20024;-60
2022/10/30 01:16:21;;;;;;;28.38;15.65;;;;;;;13.36;100.00;101566.72;5051863;28;20511;-60
2022/10/30 01:19:07;;;;;;;27.35;15.77;;;;;;;13.30;100.00;101559.63;5048832;28;20037;-60
2022/10/30 01:22:06;;;;;;;26.90;15.68;;;;;;;13.32;100.00;101568.50;5051901;28;20033;-60
2022/10/30 01:27:17;;;;;;;26.13;15.07;;;;;;;13.30;100.00;101588.22;5030659;28;20060;-59
2022/10/30 01:30:06;;;;;;;27.25;16.65;;;;;;;13.26;100.00;101590.78;5032509;28;20038;-59
2022/10/30 01:32:50;;;;;;;26.98;15.63;;;;;;;13.24;100.00;101587.50;5032286;28;20025;-60
2022/10/30 01:35:52;;;;;;;28.10;15.68;;;;;;;13.22;100.00;101587.00;5032204;28;20025;-60
2022/10/30 01:38:30;;;;;;;28.75;15.25;;;;;;;13.16;100.00;101574.31;5032201;28;20039;-60
2022/10/30 01:40:56;;;;;;;23.52;14.75;;;;;;;13.17;100.00;101577.94;5032281;28;20400;-60
2022/10/30 01:43:21;;;;;;;28.10;15.65;;;;;;;13.15;100.00;101583.78;5032137;28;20483;-60
2022/10/30 01:46:07;;;;;;;25.42;14.68;;;;;;;13.15;100.00;101592.09;5032142;28;20021;-60
2022/10/30 01:49:03;;;;;;;26.15;15.32;;;;;;;13.13;100.00;101590.78;5032269;28;20061;-59
2022/10/30 01:51:40;;;;;;;25.27;15.93;;;;;;;13.08;100.00;101597.25;5031992;28;20072;-60
2022/10/30 01:54:27;;;;;;;27.40;16.15;;;;;;;13.08;100.00;101591.69;5031917;28;20029;-61
2022/10/30 01:57:14;;;;;;;27.30;15.32;;;;;;;13.01;100.00;101580.16;5032197;28;20108;-60
2022/10/30 01:59:50;;;;;;;26.17;15.63;;;;;;;12.99;100.00;101577.66;5032206;28;20071;-60
2022/10/30 02:02:15;;;;;;;27.35;15.68;;;;;;;13.00;100.00;101587.66;5031987;28;20064;-61
2022/10/30 02:04:42;;;;;;;28.25;16.17;;;;;;;13.02;100.00;101588.16;5031863;28;20037;-60
2022/10/30 02:07:08;;;;;;;28.75;16.65;;;;;;;13.01;100.00;101588.47;5032285;28;20107;-61
2022/10/30 02:09:34;;;;;;;27.30;15.90;;;;;;;13.00;100.00;101592.38;5032061;28;20033;-61
2022/10/30 02:12:01;;;;;;;28.27;15.57;;;;;;;12.97;100.00;101585.50;5032001;28;20139;-60
2022/10/30 02:14:30;;;;;;;25.90;15.93;;;;;;;12.93;100.00;101585.28;5031811;28;20378;-61
2022/10/30 02:16:59;;;;;;;24.85;15.52;;;;;;;13.00;100.00;101601.53;5031763;28;20446;-60
2022/10/30 02:19:24;;;;;;;26.50;15.48;;;;;;;13.01;100.00;101602.38;5031868;28;20076;-60
2022/10/30 02:21:50;;;;;;;27.90;15.88;;;;;;;13.01;100.00;101592.06;5033686;28;20021;-60
2022/10/30 02:24:15;;;;;;;25.90;15.93;;;;;;;12.99;100.00;101593.50;5035548;28;20022;-60
2022/10/30 02:26:40;;;;;;;28.15;16.23;;;;;;;12.96;100.00;101592.19;5035431;28;20080;-60
2022/10/30 02:29:06;;;;;;;27.50;15.77;;;;;;;12.91;100.00;101590.31;5035486;28;20017;-61
2022/10/30 02:31:31;;;;;;;26.88;15.93;;;;;;;12.89;100.00;101588.97;5035385;28;20526;-60
2022/10/30 02:33:56;;;;;;;27.38;16.67;;;;;;;12.86;100.00;101595.94;5035663;28;20558;-61
2022/10/30 02:36:22;;;;;;;28.05;16.00;;;;;;;12.86;100.00;101607.03;5017489;28;20029;-60
2022/10/30 02:38:47;;;;;;;25.67;15.68;;;;;;;12.86;100.00;101606.22;5035331;28;20032;-61
2022/10/30 02:41:12;;;;;;;25.35;15.50;;;;;;;12.81;100.00;101609.91;5035401;28;20034;-61
2022/10/30 02:43:38;;;;;;;28.63;16.27;;;;;;;12.79;100.00;101599.13;5035250;28;20030;-61
2022/10/30 02:46:04;;;;;;;28.38;16.88;;;;;;;12.79;100.00;101606.63;5035263;28;20022;-60
2022/10/30 02:48:29;;;;;;;28.70;16.70;;;;;;;12.77;100.00;101603.31;5035298;28;20109;-60
2022/10/30 02:51:03;;;;;;;26.30;16.20;;;;;;;12.75;100.00;101606.41;5034913;28;20028;-61
2022/10/30 02:53:28;;;;;;;25.10;15.98;;;;;;;12.74;100.00;101604.75;5034998;28;20142;-60
2022/10/30 02:55:54;;;;;;;27.25;16.10;;;;;;;12.75;100.00;101605.59;5035296;28;20424;-60
2022/10/30 02:58:19;;;;;;;25.58;16.02;;;;;;;12.74;100.00;101599.19;5035102;28;20124;-60
2022/10/30 03:00:44;;;;;;;28.92;16.23;;;;;;;12.72;100.00;101609.78;5034925;28;20057;-60
2022/10/30 03:03:10;;;;;;;27.48;16.25;;;;;;;12.70;100.00;101600.94;5034815;28;20095;-60
2022/10/30 03:05:35;;;;;;;24.75;16.48;;;;;;;12.66;100.00;101601.84;5017043;28;20053;-60
2022/10/30 03:08:00;;;;;;;26.30;15.63;;;;;;;12.61;100.00;101599.97;5034645;28;20091;-60
2022/10/30 03:10:26;;;;;;;26.20;16.75;;;;;;;12.58;100.00;101598.59;5034743;28;20033;-60
2022/10/30 03:12:51;;;;;;;25.00;15.77;;;;;;;12.53;100.00;101601.47;5034552;28;20029;-60
2022/10/30 03:15:17;;;;;;;26.70;15.82;;;;;;;12.53;100.00;101600.63;5034630;28;20025;-60
2022/10/30 03:17:42;;;;;;;25.85;16.38;;;;;;;12.50;100.00;101595.69;5034612;28;20022;-60
2022/10/30 03:20:08;;;;;;;27.02;16.92;;;;;;;12.45;100.00;101596.59;5034761;28;20038;-60
2022/10/30 03:22:33;;;;;;;29.00;16.27;;;;;;;12.43;100.00;101596.06;5034538;28;20061;-60
2022/10/30 03:24:58;;;;;;;25.25;15.75;;;;;;;12.40;100.00;101597.50;5034319;28;20053;-60
2022/10/30 03:27:23;;;;;;;28.60;16.38;;;;;;;12.37;100.00;101587.00;5034458;28;20025;-60
2022/10/30 03:29:49;;;;;;;25.35;15.63;;;;;;;12.36;100.00;101595.63;5033107;28;20029;-60
2022/10/30 03:32:14;;;;;;;26.08;16.45;;;;;;;12.33;100.00;101583.16;5034370;28;20418;-60
2022/10/30 03:34:39;;;;;;;26.05;16.27;;;;;;;12.31;100.00;101588.22;5034205;28;20025;-60
2022/10/30 03:37:05;;;;;;;28.67;16.02;;;;;;;12.29;100.00;101596.00;5033953;28;20025;-60
2022/10/30 03:39:30;;;;;;;27.85;16.52;;;;;;;12.29;100.00;101601.53;5034052;28;20021;-60
2022/10/30 03:41:55;;;;;;;25.77;15.63;;;;;;;12.27;100.00;101590.75;5033951;28;20026;-61
2022/10/30 03:44:21;;;;;;;26.88;16.25;;;;;;;12.27;100.00;101596.31;5034059;28;20029;-61
2022/10/30 03:46:46;;;;;;;30.33;16.38;;;;;;;12.29;100.00;101599.59;5033965;28;20030;-61
2022/10/30 03:49:11;;;;;;;25.95;16.75;;;;;;;12.30;100.00;101595.69;5033988;28;20021;-60
2022/10/30 03:51:37;;;;;;;27.27;15.85;;;;;;;12.30;100.00;101600.44;5033990;28;20038;-60
2022/10/30 03:54:02;;;;;;;26.00;15.95;;;;;;;12.28;100.00;101592.38;5033829;28;20021;-60
2022/10/30 03:56:27;;;;;;;29.90;15.45;;;;;;;12.26;100.00;101593.81;5033767;28;20477;-61
2022/10/30 03:58:53;;;;;;;25.83;15.90;;;;;;;12.25;100.00;101603.25;5033901;28;20030;-61
2022/10/30 04:01:18;;;;;;;24.10;16.05;;;;;;;12.23;100.00;101605.53;5033801;28;20091;-61
2022/10/30 04:03:43;;;;;;;25.10;15.15;;;;;;;12.23;100.00;101606.34;5033557;28;20045;-61
2022/10/30 04:06:08;;;;;;;24.80;15.93;;;;;;;12.21;100.00;101608.59;5033626;28;20040;-60
2022/10/30 04:08:34;;;;;;;26.30;16.15;;;;;;;12.19;100.00;101613.59;5015860;28;20026;-61
2022/10/30 04:10:59;;;;;;;25.83;15.38;;;;;;;12.17;100.00;101602.81;5033447;28;20400;-60
2022/10/30 04:13:25;;;;;;;26.55;15.63;;;;;;;12.15;100.00;101607.00;5033478;28;20029;-60
2022/10/30 04:15:51;;;;;;;27.13;15.95;;;;;;;12.11;100.00;101612.34;5033391;28;20026;-60
2022/10/30 04:18:16;;;;;;;24.17;15.55;;;;;;;12.10;100.00;101607.06;5033259;28;20049;-62
2022/10/30 04:20:42;;;;;;;24.88;16.10;;;;;;;12.09;100.00;101616.53;5033534;28;20029;-60
2022/10/30 04:23:12;;;;;;;25.73;17.10;;;;;;;12.06;100.00;101622.66;5033174;28;20477;-60
2022/10/30 04:25:37;;;;;;;24.08;15.15;;;;;;;12.04;100.00;101605.50;5033162;28;20053;-61
2022/10/30 04:28:03;;;;;;;24.20;15.40;;;;;;;11.98;100.00;101601.97;5033370;28;20106;-60
2022/10/30 04:30:33;;;;;;;26.08;15.75;;;;;;;11.98;100.00;101607.50;5033229;28;20104;-60
2022/10/30 04:33:00;;;;;;;29.08;15.95;;;;;;;11.95;100.00;101611.66;5033078;28;20037;-60
2022/10/30 04:35:28;;;;;;;25.85;16.15;;;;;;;11.87;100.00;101592.94;5033009;28;20420;-60
2022/10/30 04:38:02;;;;;;;26.52;16.08;;;;;;;11.88;100.00;101604.81;5032913;28;20103;-60
2022/10/30 04:40:30;;;;;;;27.88;16.75;;;;;;;11.85;100.00;101609.84;5032870;28;20079;-60
2022/10/30 04:42:55;;;;;;;27.25;15.93;;;;;;;11.86;100.00;101613.44;5033210;28;20040;-60
2022/10/30 04:45:21;;;;;;;25.52;16.02;;;;;;;11.83;100.00;101602.94;5032617;28;20021;-60
2022/10/30 04:47:46;;;;;;;27.27;16.42;;;;;;;11.83;100.00;101611.25;5031592;28;20029;-64
2022/10/30 04:50:12;;;;;;;26.90;16.52;;;;;;;11.80;100.00;101592.47;5032980;28;20021;-60
2022/10/30 04:52:38;;;;;;;24.33;15.70;;;;;;;11.81;100.00;101594.94;5032687;28;20029;-60
2022/10/30 04:55:04;;;;;;;27.40;16.58;;;;;;;11.80;100.00;101596.06;5032774;28;20035;-61
2022/10/30 04:57:30;;;;;;;26.08;16.50;;;;;;;11.81;100.00;101596.88;5032965;28;20063;-60
2022/10/30 04:59:56;;;;;;;25.15;15.73;;;;;;;11.82;100.00;101584.66;5014833;28;20041;-61
2022/10/30 05:02:21;;;;;;;26.45;16.27;;;;;;;11.82;100.00;101571.63;5032409;28;20037;-60
2022/10/30 05:04:47;;;;;;;26.05;16.40;;;;;;;11.80;100.00;101565.56;5032559;28;20048;-61
2022/10/30 05:07:13;;;;;;;26.77;16.40;;;;;;;11.83;100.00;101564.13;5032567;28;20083;-60
2022/10/30 05:09:38;;;;;;;24.67;16.33;;;;;;;11.81;100.00;101567.22;5032379;28;20033;-60
2022/10/30 05:12:04;;;;;;;25.80;16.80;;;;;;;11.80;100.00;101579.41;5032342;28;20026;-60
2022/10/30 05:14:31;;;;;;;29.20;16.90;;;;;;;11.78;100.00;101578.06;5032290;28;20029;-61
2022/10/30 05:16:57;;;;;;;25.63;16.77;;;;;;;11.76;100.00;101574.75;5032429;28;20115;-61
2022/10/30 05:19:22;;;;;;;31.15;16.60;;;;;;;11.75;100.00;101581.41;5032325;28;20495;-60
2022/10/30 05:21:47;;;;;;;26.20;17.33;;;;;;;11.73;100.00;101578.13;5032271;28;20025;-61
2022/10/30 05:24:13;;;;;;;28.02;17.42;;;;;;;11.67;100.00;101578.19;5032207;28;20060;-61
2022/10/30 05:26:38;;;;;;;27.00;16.85;;;;;;;11.66;100.00;101573.75;5031837;28;20504;-62
2022/10/30 05:29:03;;;;;;;25.98;16.85;;;;;;;11.63;100.00;101577.13;5032176;28;20120;-60
2022/10/30 05:31:29;;;;;;;29.10;17.38;;;;;;;11.59;100.00;101581.63;5031983;28;20384;-60
2022/10/30 05:33:54;;;;;;;28.48;18.17;;;;;;;11.56;100.00;101573.88;5031936;28;20157;-60
2022/10/30 05:36:19;;;;;;;27.40;18.08;;;;;;;11.54;100.00;101576.13;5032098;28;20437;-60
2022/10/30 05:38:45;;;;;;;28.05;17.73;;;;;;;11.49;100.00;101582.53;5032127;28;20159;-60
2022/10/30 05:41:11;;;;;;;26.67;18.02;;;;;;;11.49;100.00;101595.59;5032148;28;20469;-60
2022/10/30 05:43:36;;;;;;;26.20;17.17;;;;;;;11.50;100.00;101597.25;5032149;28;20067;-61
2022/10/30 05:46:02;;;;;;;27.05;17.63;;;;;;;11.47;100.00;101593.13;5031956;28;20030;-60
2022/10/30 05:48:27;;;;;;;26.08;17.33;;;;;;;11.45;100.00;101602.81;5031797;28;20060;-60
2022/10/30 05:50:56;;;;;;;26.15;17.67;;;;;;;11.43;100.00;101597.59;5031826;28;20029;-60
2022/10/30 05:53:22;;;;;;;27.65;17.00;;;;;;;11.38;100.00;101600.41;5031935;28;20049;-60
2022/10/30 05:55:48;;;;;;;24.35;16.67;;;;;;;11.34;100.00;101597.38;5032053;28;20194;-60
2022/10/30 05:58:13;;;;;;;26.90;16.80;;;;;;;11.31;100.00;101588.84;5035950;28;20484;-60
2022/10/30 06:00:40;;;;;;;31.20;17.15;;;;;;;11.26;100.00;101595.25;5035992;28;20105;-61
2022/10/30 06:03:08;;;;;;;26.10;17.13;;;;;;;11.21;100.00;101593.38;5035737;28;20033;-60
2022/10/30 06:05:35;;;;;;;26.50;17.25;;;;;;;11.16;100.00;101598.97;5035725;28;20040;-60
2022/10/30 06:08:01;;;;;;;26.77;17.08;;;;;;;11.11;100.00;101596.22;5035855;28;20110;-60
2022/10/30 06:10:27;;;;;;;26.95;17.13;;;;;;;11.06;100.00;101597.09;5035701;28;20498;-60
2022/10/30 06:12:53;;;;;;;26.35;17.20;;;;;;;11.03;100.00;101594.94;5035553;28;20022;-61
2022/10/30 06:15:18;;;;;;;28.02;17.35;;;;;;;11.01;100.00;101599.94;5036089;28;20033;-60
2022/10/30 06:17:43;;;;;;;29.10;17.63;;;;;;;10.99;100.00;101599.38;5036214;28;20021;-60
2022/10/30 06:20:09;;;;;;;27.17;17.52;;;;;;;10.97;100.00;101600.81;5035502;28;20025;-60
2022/10/30 06:22:34;;;;;;;26.27;17.50;;;;;;;10.94;100.00;101602.22;5035824;28;20039;-61
2022/10/30 06:25:00;;;;;;;26.83;17.13;;;;;;;10.91;100.00;101609.13;5035356;28;20128;-61
2022/10/30 06:27:25;;;;;;;27.23;16.88;;;;;;;10.88;100.00;101606.97;5017208;28;20024;-60
2022/10/30 06:29:53;;;;;;;28.30;17.35;;;;;;;10.88;100.00;101606.97;5035416;28;20036;-60
2022/10/30 06:32:19;;;;;;;28.25;17.13;;;;;;;10.87;100.00;101608.09;5035660;28;20036;-61
2022/10/30 06:34:44;;;;;;;28.08;17.40;;;;;;;10.86;100.00;101602.84;5035586;28;20112;-60
2022/10/30 06:37:10;;;;;;;29.58;17.58;;;;;;;10.86;100.00;101594.53;5035522;28;20362;-60
2022/10/30 06:39:35;;;;;;;27.23;17.48;;;;;;;10.84;100.00;101594.00;5035509;28;20033;-60
2022/10/30 06:42:00;;;;;;;30.08;18.45;;;;;;;10.82;100.00;101594.25;5035529;28;20060;-60
2022/10/30 06:44:26;;;;;;;28.92;17.40;;;;;;;10.83;100.00;101581.28;5035091;28;20030;-61
2022/10/30 06:46:52;;;;;;;26.70;17.17;;;;;;;10.83;100.00;101589.56;5035495;28;20075;-61
2022/10/30 06:49:17;;;;;;;25.55;16.83;;;;;;;10.85;100.00;101590.94;5035479;28;20108;-61
2022/10/30 06:51:43;;;;;;;29.02;16.60;;;;;;;10.85;100.00;101592.88;5035221;28;20109;-61
2022/10/30 06:54:08;;;;;;;25.60;16.83;;;;;;;10.86;100.00;101589.00;5034841;28;20029;-61
2022/10/30 06:56:33;;;;;;;26.45;16.73;;;;;;;10.87;100.00;101591.47;5035023;28;20025;-61
2022/10/30 06:58:58;;;;;;;26.40;16.45;;;;;;;10.88;100.00;101590.34;5034418;28;20068;-61
2022/10/30 07:01:24;;;;;;;26.80;16.90;;;;;;;10.88;100.00;101587.59;5034951;28;20025;-61
2022/10/30 07:03:49;;;;;;;25.48;16.15;;;;;;;10.90;100.00;101593.66;5034938;28;20029;-61
2022/10/30 07:06:14;;;;;;;24.85;16.23;;;;;;;10.92;100.00;101594.19;5035069;28;20104;-60
2022/10/30 07:08:40;;;;;;;26.67;16.25;;;;;;;10.92;100.00;101591.41;5034453;28;20035;-61
2022/10/30 07:11:05;;;;;;;26.02;16.17;;;;;;;10.97;100.00;101587.78;5017055;28;20500;-60
2022/10/30 07:13:30;;;;;;;27.67;16.88;;;;;;;11.00;100.00;101581.66;5034835;28;20479;-60
2022/10/30 07:15:57;;;;;;;26.45;15.95;;;;;;;10.98;100.00;101569.25;5017131;28;20026;-61
2022/10/30 07:18:23;;;;;;;28.75;16.30;;;;;;;11.07;100.00;101575.78;5017050;28;20495;-60
2022/10/30 07:20:53;;;;;;;25.73;15.70;;;;;;;11.13;100.00;101571.84;5034742;28;20063;-60
2022/10/30 07:23:19;;;;;;;26.95;16.10;;;;;;;11.19;100.00;101575.41;5034758;28;20029;-60
2022/10/30 07:25:44;;;;;;;26.25;16.15;;;;;;;11.22;100.00;101572.88;5034628;28;20508;-60
2022/10/30 07:28:09;;;;;;;26.85;17.23;;;;;;;11.29;100.00;101578.06;5034600;28;20021;-62
2022/10/30 07:30:35;;;;;;;25.85;16.17;;;;;;;11.32;100.00;101577.50;5034561;28;20108;-60
2022/10/30 07:33:04;;;;;;;26.95;16.52;;;;;;;11.35;100.00;101578.84;5034343;28;20026;-61
2022/10/30 07:35:31;;;;;;;26.92;16.55;;;;;;;11.37;100.00;101577.41;5034322;28;20033;-62
2022/10/30 07:38:02;;;;;;;27.00;17.83;;;;;;;11.41;100.00;101577.66;5034146;28;20414;-59
2022/10/30 07:40:28;;;;;;;27.08;17.92;;;;;;;11.46;100.00;101583.16;5034089;28;20104;-62
2022/10/30 07:42:58;;;;;;;28.05;18.50;;;;;;;11.51;100.00;101579.50;5034787;28;20154;-61
2022/10/30 07:45:24;;;;;;;27.95;17.50;;;;;;;11.52;100.00;101581.16;5034170;28;20037;-60
2022/10/30 07:47:49;;;;;;;29.60;18.48;;;;;;;11.55;100.00;101586.94;5033972;28;20499;-60
2022/10/30 07:50:15;;;;;;;27.55;17.52;;;;;;;11.60;100.00;101582.44;5034251;28;20032;-61
2022/10/30 07:52:40;;;;;;;26.58;17.90;;;;;;;11.66;100.00;101584.84;5033906;28;20037;-62
2022/10/30 07:55:06;;;;;;;29.40;19.25;;;;;;;11.70;100.00;101579.53;5034159;28;20025;-60
2022/10/30 07:57:39;;;;;;;29.67;18.55;;;;;;;11.76;100.00;101578.34;5033835;28;20024;-60
2022/10/30 08:00:14;;;;;;;29.38;18.75;;;;;;;11.83;100.00;101580.75;5033795;28;20033;-60
2022/10/30 08:02:40;;;;;;;29.60;20.35;;;;;;;11.86;100.00;101572.69;5034102;28;20033;-60
2022/10/30 08:05:07;;;;;;;28.85;18.63;;;;;;;11.94;100.00;101573.16;5015969;28;20109;-61
2022/10/30 08:07:34;;;;;;;27.88;18.30;;;;;;;11.99;100.00;101578.66;5032260;28;20388;-61
2022/10/30 08:09:59;;;;;;;29.20;18.70;;;;;;;12.08;100.00;101587.16;5033448;28;20033;-60
2022/10/30 08:12:26;;;;;;;29.48;19.58;;;;;;;12.11;100.00;101581.81;5033523;28;20026;-61
2022/10/30 08:14:52;;;;;;;31.75;20.10;;;;;;;12.22;100.00;101584.47;5033507;28;20033;-60
2022/10/30 08:17:18;;;;;;;29.63;19.83;;;;;;;12.29;100.00;101585.72;5033593;28;20025;-61
2022/10/30 08:19:43;;;;;;;31.38;17.95;;;;;;;12.36;100.00;101585.34;5032557;28;20095;-61
2022/10/30 08:22:09;;;;;;;31.85;19.08;;;;;;;12.44;100.00;101579.13;5033182;28;20033;-60
2022/10/30 08:24:35;;;;;;;27.55;17.83;;;;;;;12.52;100.00;101569.28;5033065;28;20491;-60
2022/10/30 08:27:00;;;;;;;28.27;17.80;;;;;;;12.59;100.00;101564.16;5032830;28;20053;-60
2022/10/30 08:29:26;;;;;;;27.73;17.40;;;;;;;12.66;100.00;101563.78;5033029;28;20075;-60
2022/10/30 08:31:51;;;;;;;27.40;17.08;;;;;;;12.72;100.00;101548.69;5033073;28;20067;-59
2022/10/30 08:34:17;;;;;;;27.38;17.70;;;;;;;12.81;100.00;101565.50;5032726;28;20022;-60
2022/10/30 08:36:42;;;;;;;26.73;17.23;;;;;;;12.87;100.00;101555.13;5032892;28;20033;-60
2022/10/30 08:39:08;;;;;;;27.40;17.70;;;;;;;12.97;100.00;101573.53;5032637;28;20455;-61
2022/10/30 08:41:33;;;;;;;30.20;18.55;;;;;;;13.03;100.00;101581.50;5032691;28;20032;-60
2022/10/30 08:43:58;;;;;;;30.35;18.70;;;;;;;13.10;100.00;101576.34;5032767;28;20045;-60
2022/10/30 08:46:24;;;;;;;28.30;17.58;;;;;;;13.17;100.00;101584.28;5032480;28;20021;-59
2022/10/30 08:48:49;;;;;;;26.95;17.60;;;;;;;13.21;100.00;101579.78;5032557;28;20532;-60
2022/10/30 08:51:14;;;;;;;26.33;16.75;;;;;;;13.26;100.00;101570.53;5032383;28;20048;-59
2022/10/30 08:53:39;;;;;;;26.90;17.17;;;;;;;13.31;100.00;101569.63;5032535;28;20030;-59
2022/10/30 08:56:05;;;;;;;27.98;16.63;;;;;;;13.34;100.00;101568.97;5032363;28;20041;-59
2022/10/30 08:58:30;;;;;;;27.27;16.77;;;;;;;13.39;100.00;101575.31;5014529;28;20466;-62
2022/10/30 09:00:56;;;;;;;25.75;16.92;;;;;;;13.46;100.00;101574.91;5032413;28;20103;-60
2022/10/30 09:03:21;;;;;;;28.63;16.95;;;;;;;13.54;100.00;101578.94;5032590;28;20033;-60
2022/10/30 09:05:47;;;;;;;26.17;16.95;;;;;;;13.63;100.00;101571.50;5032238;28;20040;-60
2022/10/30 09:08:12;;;;;;;26.25;17.60;;;;;;;13.71;100.00;101578.28;5032122;28;20091;-60
2022/10/30 09:10:38;;;;;;;25.65;16.40;;;;;;;13.79;100.00;101582.31;5032113;28;20029;-61
2022/10/30 09:13:03;;;;;;;25.85;16.55;;;;;;;13.86;100.00;101575.19;5032099;28;20086;-60
2022/10/30 09:15:29;;;;;;;27.45;17.23;;;;;;;13.97;100.00;101572.19;5032570;28;20069;-60
2022/10/30 09:18:01;;;;;;;27.85;16.90;;;;;;;14.06;100.00;101566.72;5032413;28;20473;-61
2022/10/30 09:20:28;;;;;;;28.83;17.80;;;;;;;14.15;100.00;101568.47;5032758;28;20029;-61
2022/10/30 09:22:53;;;;;;;25.75;16.55;;;;;;;14.22;100.00;101570.78;5032076;28;20374;-60
2022/10/30 09:25:19;;;;;;;29.77;17.20;;;;;;;14.31;100.00;101562.53;5031776;28;20568;-61
2022/10/30 09:27:45;;;;;;;28.23;17.58;;;;;;;14.44;100.00;101560.81;5032271;28;20029;-61
2022/10/30 09:30:11;;;;;;;26.27;17.52;;;;;;;14.58;100.00;101556.03;5031959;28;20041;-61
2022/10/30 09:32:37;;;;;;;26.40;16.95;;;;;;;14.70;100.00;101549.09;5032000;28;20029;-60
2022/10/30 09:35:02;;;;;;;29.35;17.13;;;;;;;14.82;100.00;101546.56;5032050;28;20025;-60
2022/10/30 09:37:27;;;;;;;28.70;16.58;;;;;;;14.97;100.00;101548.94;5032032;28;20056;-61
2022/10/30 09:39:53;;;;;;;26.65;17.35;;;;;;;15.12;100.00;101556.06;5031918;28;20503;-60
2022/10/30 09:42:41;;;;;;;31.63;17.45;;;;;;;15.27;100.00;101554.00;5032169;28;20053;-60
2022/10/30 09:45:25;;;;;;;29.00;17.95;;;;;;;15.39;100.00;101554.25;5031875;28;20366;-61
2022/10/30 09:48:14;;;;;;;27.27;17.42;;;;;;;15.49;100.00;101555.09;5014098;28;20025;-61
2022/10/30 09:50:59;;;;;;;28.50;17.55;;;;;;;15.57;100.00;101557.91;5032125;28;20029;-60
2022/10/30 09:53:38;;;;;;;28.17;17.67;;;;;;;15.65;99.66;101564.66;5031857;28;20061;-60
2022/10/30 09:56:29;;;;;;;27.65;17.80;;;;;;;15.80;99.62;101568.13;5031881;28;20060;-61
2022/10/30 09:59:19;;;;;;;29.98;18.02;;;;;;;15.85;98.73;101574.41;5031089;28;20121;-60
2022/10/30 10:02:08;;;;;;;28.33;19.05;;;;;;;15.95;98.79;101583.63;5031649;28;20528;-60
2022/10/30 10:04:47;;;;;;;28.33;17.45;;;;;;;15.95;97.48;101589.22;5032142;28;20199;-61
2022/10/30 10:07:29;;;;;;;27.10;16.95;;;;;;;15.92;96.82;101585.09;5031783;28;20041;-59
2022/10/30 10:10:14;;;;;;;26.63;16.42;;;;;;;15.94;96.35;101596.78;5031820;28;20087;-60
2022/10/30 10:12:45;;;;;;;24.45;15.43;;;;;;;15.86;95.29;101576.06;5013334;28;20032;-61
2022/10/30 10:15:20;;;;;;;30.35;16.30;;;;;;;15.92;95.31;101584.28;5030942;28;20075;-61
2022/10/30 10:17:46;;;;;;;27.23;16.77;;;;;;;15.91;95.58;101586.25;5031620;28;20116;-62
2022/10/30 10:20:25;;;;;;;28.77;16.90;;;;;;;15.89;95.43;101585.75;5031452;28;20025;-60
2022/10/30 10:22:51;;;;;;;29.92;17.58;;;;;;;15.90;95.28;101573.44;5029384;28;20472;-60
2022/10/30 10:25:19;;;;;;;27.48;17.65;;;;;;;15.95;94.99;101576.09;5029327;28;20191;-61
2022/10/30 10:28:20;;;;;;;28.35;18.45;;;;;;;16.02;95.36;101570.00;5012629;28;20116;-60
2022/10/30 10:30:54;;;;;;;28.63;17.80;;;;;;;16.05;94.86;101570.22;5031091;28;20041;-60
2022/10/30 10:33:31;;;;;;;29.50;17.38;;;;;;;16.11;95.04;101573.63;5031282;28;20044;-60
2022/10/30 10:36:21;;;;;;;30.30;18.00;;;;;;;16.17;94.89;101572.34;5031130;28;20052;-61
2022/10/30 10:38:55;;;;;;;30.73;17.38;;;;;;;16.27;94.19;101567.59;5031354;28;20053;-61
2022/10/30 10:41:49;;;;;;;25.58;16.75;;;;;;;16.29;93.84;101557.72;5031656;28;20026;-60
2022/10/30 10:44:19;;;;;;;28.63;16.40;;;;;;;16.38;92.67;101568.91;5003961;28;20045;-60
2022/10/30 10:47:23;;;;;;;27.65;17.23;;;;;;;16.44;93.76;101563.97;5035168;28;20053;-60
2022/10/30 10:50:00;;;;;;;26.58;17.33;;;;;;;16.44;93.26;101547.22;4986983;28;20029;-60
2022/10/30 10:52:38;;;;;;;27.30;17.25;;;;;;;16.52;93.04;101555.59;5034772;28;20465;-61
2022/10/30 10:55:11;;;;;;;26.88;16.98;;;;;;;16.56;92.06;101552.16;5035087;28;20026;-60
2022/10/30 10:57:40;;;;;;;27.00;17.42;;;;;;;16.61;92.47;101561.19;5034731;28;20415;-60
2022/10/30 11:00:11;;;;;;;27.27;17.58;;;;;;;16.67;91.87;101557.06;5034760;28;20051;-60
2022/10/30 11:02:42;;;;;;;28.63;17.48;;;;;;;16.77;91.43;101566.25;5034910;28;20473;-60
2022/10/30 11:05:41;;;;;;;28.45;18.38;;;;;;;16.82;92.29;101564.09;5034628;28;20464;-60
2022/10/30 11:08:15;;;;;;;92.93;28.25;;;;;;;16.81;91.08;101559.66;5008367;28;20468;-60
2022/10/30 11:10:41;;;;;;;31.33;19.20;;;;;;;16.86;90.72;101560.66;5034532;28;20112;-60
2022/10/30 11:13:12;;;;;;;55.20;20.90;;;;;;;16.86;89.99;101555.06;5034736;28;20105;-61
2022/10/30 11:16:15;;;;;;;36.70;18.80;;;;;;;16.87;90.92;101557.53;5034493;28;20033;-61